Time;durP1;ratioP1;P1;durP2;ratioP2;P2;SDS_P1;SDS_P2;PMS_P1;PMS_P2;Temp;Humidity;BMP_temperature;BMP_pressure;BME280_temperature;BME280_humidity;BME280_pressure;Samples;Min_cycle;Max_cycle;Signal;HPM_P1;HPM_P2
2023/12/25 00:01:26;;;;;;;3.20;0.63;;;10.10;10.90;;;;;;5047761;28;20473;-70
2023/12/25 00:03:53;;;;;;;3.30;0.90;;;10.10;10.60;;;;;;5044998;28;20859;-70
2023/12/25 00:06:20;;;;;;;3.10;0.60;;;10.00;10.80;;;;;;5049655;28;20469;-69
2023/12/25 00:08:48;;;;;;;2.93;0.60;;;10.00;10.50;;;;;;5042575;28;20482;-69
2023/12/25 00:11:16;;;;;;;3.00;0.60;;;10.10;10.60;;;;;;5040850;28;20459;-69
2023/12/25 00:13:43;;;;;;;3.60;0.70;;;10.00;10.50;;;;;;5043788;28;20898;-70
2023/12/25 00:16:10;;;;;;;3.00;0.70;;;10.00;10.40;;;;;;5040580;28;20461;-69
2023/12/25 00:18:36;;;;;;;3.53;0.70;;;10.00;10.60;;;;;;5047037;28;20470;-69
2023/12/25 00:21:03;;;;;;;3.27;1.00;;;10.00;10.70;;;;;;5050640;28;20468;-69
2023/12/25 00:23:30;;;;;;;3.23;0.80;;;10.00;10.60;;;;;;5051469;28;20482;-69
2023/12/25 00:25:57;;;;;;;3.50;0.80;;;10.00;10.60;;;;;;5048509;28;20458;-69
2023/12/25 00:28:25;;;;;;;3.10;0.70;;;10.00;10.70;;;;;;5052391;28;20458;-69
2023/12/25 00:30:51;;;;;;;3.23;0.90;;;10.00;10.70;;;;;;5046758;28;20477;-69
2023/12/25 00:33:18;;;;;;;3.67;0.80;;;9.90;10.70;;;;;;5046623;28;20489;-70
2023/12/25 00:35:46;;;;;;;3.00;0.57;;;9.90;10.90;;;;;;5046050;28;20497;-69
2023/12/25 00:38:13;;;;;;;3.07;0.63;;;9.90;10.90;;;;;;5051687;28;20454;-69
2023/12/25 00:40:40;;;;;;;3.20;0.73;;;9.80;10.90;;;;;;5046324;28;20958;-69
2023/12/25 00:43:06;;;;;;;3.00;0.90;;;9.80;11.00;;;;;;5045388;28;20492;-69
2023/12/25 00:45:34;;;;;;;3.47;0.90;;;9.80;10.90;;;;;;5046299;28;20465;-70
2023/12/25 00:48:01;;;;;;;2.80;0.50;;;9.80;11.00;;;;;;5048474;28;20461;-70
2023/12/25 00:50:28;;;;;;;3.33;0.70;;;9.80;11.00;;;;;;5059661;28;20476;-70
2023/12/25 00:52:54;;;;;;;4.10;0.93;;;9.80;11.10;;;;;;5046150;28;20470;-70
2023/12/25 00:55:21;;;;;;;3.70;0.60;;;9.80;10.90;;;;;;5040090;28;20459;-70
2023/12/25 00:57:48;;;;;;;4.23;1.53;;;9.80;10.90;;;;;;5049306;28;20470;-70
2023/12/25 01:00:15;;;;;;;3.83;0.90;;;9.70;10.80;;;;;;5044912;28;20541;-69
2023/12/25 01:02:43;;;;;;;3.40;0.70;;;9.70;11.00;;;;;;5045439;28;20496;-70
2023/12/25 01:05:10;;;;;;;3.20;0.80;;;9.70;11.10;;;;;;5040800;28;21245;-70
2023/12/25 01:07:36;;;;;;;4.37;0.97;;;9.70;10.90;;;;;;5051215;28;20454;-70
2023/12/25 01:10:03;;;;;;;3.80;0.70;;;9.70;10.90;;;;;;5045404;23;20491;-70
2023/12/25 01:12:30;;;;;;;3.03;0.80;;;9.70;11.10;;;;;;5029460;28;20462;-68
2023/12/25 01:14:57;;;;;;;3.67;1.00;;;9.60;11.20;;;;;;5026190;28;21026;-68
2023/12/25 01:17:23;;;;;;;3.40;0.80;;;9.60;11.20;;;;;;5023911;28;20458;-70
2023/12/25 01:19:52;;;;;;;3.00;0.80;;;9.60;11.20;;;;;;5026348;28;20838;-68
2023/12/25 01:22:19;;;;;;;3.30;0.90;;;9.60;11.10;;;;;;5023855;28;20491;-69
2023/12/25 01:24:46;;;;;;;3.40;0.80;;;9.60;11.20;;;;;;5025951;28;20850;-68
2023/12/25 01:27:12;;;;;;;3.07;0.73;;;9.60;11.00;;;;;;5029513;28;20466;-68
2023/12/25 01:29:39;;;;;;;3.17;0.60;;;9.60;11.00;;;;;;5022470;28;20506;-68
2023/12/25 01:32:06;;;;;;;3.43;0.80;;;9.60;10.80;;;;;;5025055;28;20475;-68
2023/12/25 01:34:33;;;;;;;3.37;0.70;;;9.70;11.00;;;;;;5026398;28;20486;-68
2023/12/25 01:37:04;;;;;;;4.50;1.17;;;9.60;10.70;;;;;;5028076;28;20466;-68
2023/12/25 01:39:31;;;;;;;2.83;0.60;;;9.70;10.60;;;;;;5024398;28;20460;-68
2023/12/25 01:41:57;;;;;;;3.33;0.70;;;9.60;10.70;;;;;;5028307;28;20848;-70
2023/12/25 01:44:24;;;;;;;3.47;0.70;;;9.60;10.70;;;;;;5027067;28;20475;-69
2023/12/25 01:46:51;;;;;;;3.00;0.70;;;9.60;10.50;;;;;;5023560;28;20466;-70
2023/12/25 01:49:17;;;;;;;2.97;0.60;;;9.60;10.40;;;;;;5028255;28;20482;-70
2023/12/25 01:51:44;;;;;;;3.30;0.83;;;9.60;10.20;;;;;;5022387;28;20471;-69
2023/12/25 01:54:12;;;;;;;3.30;0.77;;;9.60;10.30;;;;;;5024840;28;20482;-68
2023/12/25 01:56:40;;;;;;;3.20;0.80;;;9.60;10.30;;;;;;5026525;28;20458;-68
2023/12/25 01:59:06;;;;;;;5.03;1.00;;;9.60;10.10;;;;;;5024459;28;21254;-68
2023/12/25 02:01:33;;;;;;;4.80;0.87;;;9.60;10.20;;;;;;5026966;28;20474;-69
2023/12/25 02:04:00;;;;;;;6.70;0.73;;;9.60;10.00;;;;;;5026538;28;20479;-68
2023/12/25 02:06:28;;;;;;;4.33;0.90;;;9.60;9.70;;;;;;5025276;28;20466;-69
2023/12/25 02:08:56;;;;;;;2.87;0.57;;;9.70;9.60;;;;;;5027093;28;20455;-69
2023/12/25 02:11:24;;;;;;;3.33;0.83;;;9.60;9.60;;;;;;5028431;28;20455;-70
2023/12/25 02:13:51;;;;;;;3.27;0.70;;;9.60;9.40;;;;;;5025377;28;20482;-69
2023/12/25 02:16:18;;;;;;;3.23;0.83;;;9.60;9.40;;;;;;5027109;28;20506;-69
2023/12/25 02:18:44;;;;;;;3.40;0.73;;;9.60;9.50;;;;;;5026095;28;20471;-70
2023/12/25 02:21:11;;;;;;;3.77;0.70;;;9.60;9.40;;;;;;5027260;28;20958;-69
2023/12/25 02:23:38;;;;;;;5.10;0.67;;;9.60;9.50;;;;;;5027516;28;20479;-69
2023/12/25 02:26:08;;;;;;;3.60;0.80;;;9.60;9.40;;;;;;5025963;28;20462;-69
2023/12/25 02:28:34;;;;;;;3.00;0.60;;;9.60;9.50;;;;;;5028017;28;20466;-69
2023/12/25 02:31:01;;;;;;;3.63;0.60;;;9.60;9.40;;;;;;5025934;28;20467;-69
2023/12/25 02:33:28;;;;;;;2.90;0.70;;;9.60;9.30;;;;;;5028465;28;20471;-69
2023/12/25 02:35:55;;;;;;;2.90;0.60;;;9.50;9.30;;;;;;5027936;28;20463;-71
2023/12/25 02:38:22;;;;;;;3.30;0.70;;;9.60;9.30;;;;;;5025253;28;20454;-69
2023/12/25 02:40:48;;;;;;;3.20;0.60;;;9.60;9.20;;;;;;5021338;28;20451;-69
2023/12/25 02:43:17;;;;;;;3.00;0.60;;;9.50;9.10;;;;;;5027115;28;20486;-69
2023/12/25 02:45:43;;;;;;;3.07;0.60;;;9.50;9.20;;;;;;5025267;28;20467;-69
2023/12/25 02:48:10;;;;;;;3.53;0.80;;;9.50;9.10;;;;;;5024822;28;20463;-69
2023/12/25 02:50:37;;;;;;;3.50;0.70;;;9.50;9.10;;;;;;5025690;28;20485;-69
2023/12/25 02:53:04;;;;;;;3.00;0.70;;;9.50;9.10;;;;;;5026148;28;21028;-69
2023/12/25 02:55:31;;;;;;;3.30;0.80;;;9.50;9.20;;;;;;5026321;28;20517;-69
2023/12/25 02:57:57;;;;;;;3.10;0.70;;;9.50;9.20;;;;;;5023143;28;20463;-71
2023/12/25 03:00:25;;;;;;;4.03;1.30;;;9.50;9.10;;;;;;5026541;28;21328;-69
2023/12/25 03:02:52;;;;;;;4.10;0.50;;;9.50;8.90;;;;;;5026943;28;20495;-69
2023/12/25 03:05:19;;;;;;;3.70;0.70;;;9.50;8.90;;;;;;5026754;28;20476;-69
2023/12/25 03:07:45;;;;;;;3.80;0.57;;;9.50;8.80;;;;;;5024661;28;20482;-69
2023/12/25 03:10:12;;;;;;;3.23;0.60;;;9.50;8.90;;;;;;5026214;28;20483;-69
2023/12/25 03:12:39;;;;;;;4.00;0.90;;;9.50;8.80;;;;;;5026191;28;21183;-71
2023/12/25 03:15:07;;;;;;;2.80;0.50;;;9.50;8.90;;;;;;5025525;28;20508;-69
2023/12/25 03:17:35;;;;;;;3.10;0.80;;;9.50;8.90;;;;;;5026595;28;20828;-69
2023/12/25 03:20:03;;;;;;;5.70;0.90;;;9.50;8.80;;;;;;5025361;28;20455;-69
2023/12/25 03:22:29;;;;;;;5.20;1.00;;;9.50;8.60;;;;;;5025812;28;20499;-69
2023/12/25 03:24:56;;;;;;;3.67;0.60;;;9.50;8.40;;;;;;5029272;28;20903;-69
2023/12/25 03:27:23;;;;;;;3.07;0.77;;;9.50;8.20;;;;;;5028347;28;20471;-69
2023/12/25 03:29:50;;;;;;;3.00;0.70;;;9.50;8.20;;;;;;5030985;28;20493;-70
2023/12/25 03:32:19;;;;;;;3.10;0.53;;;9.40;8.20;;;;;;5027420;28;20494;-69
2023/12/25 03:34:47;;;;;;;3.57;0.77;;;9.40;8.00;;;;;;5025926;28;20522;-70
2023/12/25 03:37:14;;;;;;;2.93;0.60;;;9.50;7.40;;;;;;5026996;28;20498;-69
2023/12/25 03:39:41;;;;;;;3.10;0.47;;;9.50;7.30;;;;;;5029568;28;20474;-69
2023/12/25 03:42:08;;;;;;;3.27;0.53;;;9.40;7.20;;;;;;5031069;28;20463;-70
2023/12/25 03:44:34;;;;;;;2.90;0.60;;;9.40;6.90;;;;;;5035264;28;20482;-69
2023/12/25 03:47:02;;;;;;;4.20;0.90;;;9.40;6.70;;;;;;5039787;28;20462;-69
2023/12/25 03:49:29;;;;;;;2.90;0.57;;;9.40;6.60;;;;;;5033069;28;20459;-69
2023/12/25 03:51:57;;;;;;;3.43;0.80;;;9.40;6.10;;;;;;5028297;28;20465;-70
2023/12/25 03:54:24;;;;;;;3.10;0.43;;;9.40;6.10;;;;;;5031022;28;20485;-69
2023/12/25 03:56:51;;;;;;;3.40;0.90;;;9.40;5.80;;;;;;5026932;28;20981;-69
2023/12/25 03:59:17;;;;;;;2.93;0.73;;;9.40;5.80;;;;;;5030108;28;20451;-69
2023/12/25 04:01:44;;;;;;;3.15;0.60;;;9.40;6.00;;;;;;5028439;28;20445;-69
2023/12/25 04:04:11;;;;;;;2.97;0.57;;;9.40;4.90;;;;;;5029076;28;20236;-69
2023/12/25 04:06:37;;;;;;;3.43;1.03;;;9.50;4.70;;;;;;5029873;28;20462;-69
2023/12/25 04:09:05;;;;;;;4.10;0.80;;;9.50;4.40;;;;;;5028965;28;20473;-70
2023/12/25 04:11:32;;;;;;;6.80;0.70;;;9.50;4.20;;;;;;5024891;28;20844;-70
2023/12/25 04:13:59;;;;;;;3.10;0.63;;;9.50;4.40;;;;;;5027488;28;21016;-69
2023/12/25 04:16:27;;;;;;;2.90;0.60;;;9.50;3.80;;;;;;5029827;28;20469;-69
2023/12/25 04:18:55;;;;;;;3.63;0.50;;;9.50;4.00;;;;;;5030430;28;20455;-69
2023/12/25 04:21:23;;;;;;;2.93;0.60;;;9.50;3.80;;;;;;5029579;28;20486;-70
2023/12/25 04:23:49;;;;;;;3.40;0.60;;;9.50;3.70;;;;;;5029455;28;20483;-69
2023/12/25 04:26:17;;;;;;;2.90;0.53;;;9.40;3.50;;;;;;5026611;28;20459;-69
2023/12/25 04:28:44;;;;;;;3.80;1.00;;;9.40;3.20;;;;;;5028007;28;20463;-69
2023/12/25 04:31:11;;;;;;;3.00;0.53;;;9.40;3.10;;;;;;5025254;28;20458;-69
2023/12/25 04:33:38;;;;;;;3.50;0.90;;;9.40;3.40;;;;;;5031460;28;20491;-69
2023/12/25 04:36:05;;;;;;;4.10;0.70;;;9.40;3.20;;;;;;5036694;28;20467;-69
2023/12/25 04:38:32;;;;;;;2.90;0.57;;;9.40;2.20;;;;;;5029694;28;20463;-69
2023/12/25 04:40:59;;;;;;;3.00;0.67;;;9.40;2.60;;;;;;5027255;28;20454;-69
2023/12/25 04:43:27;;;;;;;3.17;0.60;;;9.40;1.90;;;;;;5028591;28;20482;-69
2023/12/25 04:45:54;;;;;;;3.00;0.80;;;9.40;1.40;;;;;;5027904;28;20542;-69
2023/12/25 04:48:21;;;;;;;2.90;0.50;;;9.50;1.60;;;;;;5028628;28;20483;-69
2023/12/25 04:50:48;;;;;;;3.50;0.50;;;9.40;1.60;;;;;;5027786;28;20482;-69
2023/12/25 04:53:14;;;;;;;3.20;0.77;;;9.40;1.70;;;;;;5024839;28;20511;-69
2023/12/25 04:55:41;;;;;;;4.07;0.87;;;9.40;1.90;;;;;;5028265;28;20826;-69
2023/12/25 04:58:08;;;;;;;3.00;0.50;;;9.40;2.60;;;;;;5025576;28;20524;-69
2023/12/25 05:00:36;;;;;;;3.70;0.70;;;9.40;2.70;;;;;;5025914;28;20481;-68
2023/12/25 05:03:04;;;;;;;3.60;0.60;;;9.30;3.00;;;;;;5026865;28;20589;-70
2023/12/25 05:05:30;;;;;;;2.80;0.60;;;9.30;2.90;;;;;;5026602;28;20494;-70
2023/12/25 05:07:57;;;;;;;3.77;0.70;;;9.30;3.00;;;;;;5029021;28;20459;-68
2023/12/25 05:10:24;;;;;;;3.60;0.67;;;9.30;3.30;;;;;;5028534;28;20483;-69
2023/12/25 05:12:50;;;;;;;5.10;0.73;;;9.30;3.40;;;;;;5024711;28;20975;-68
2023/12/25 05:15:17;;;;;;;3.17;0.70;;;9.30;3.60;;;;;;5027213;28;20474;-69
2023/12/25 05:17:45;;;;;;;3.57;0.60;;;9.30;3.50;;;;;;5025464;28;20477;-71
2023/12/25 05:20:12;;;;;;;3.03;0.57;;;9.30;3.90;;;;;;5021911;28;21066;-68
2023/12/25 05:22:39;;;;;;;2.90;0.60;;;9.30;3.90;;;;;;5023088;28;20475;-68
2023/12/25 05:25:06;;;;;;;2.90;0.50;;;9.30;4.20;;;;;;5029716;28;20537;-69
2023/12/25 05:27:33;;;;;;;3.10;0.60;;;9.30;4.20;;;;;;5022497;28;20467;-69
2023/12/25 05:30:00;;;;;;;3.43;0.70;;;9.20;4.40;;;;;;5027413;28;20474;-69
2023/12/25 05:32:28;;;;;;;3.10;0.70;;;9.20;4.70;;;;;;5028682;28;20478;-71
2023/12/25 05:34:56;;;;;;;3.10;0.50;;;9.20;4.80;;;;;;5027904;28;20487;-69
2023/12/25 05:37:23;;;;;;;3.00;0.50;;;9.20;5.10;;;;;;5020400;28;20459;-69
2023/12/25 05:39:50;;;;;;;3.60;0.70;;;9.20;4.90;;;;;;5020141;28;20463;-69
2023/12/25 05:42:16;;;;;;;3.67;0.80;;;9.20;5.00;;;;;;5028008;28;20459;-69
2023/12/25 05:44:43;;;;;;;3.20;0.60;;;9.20;5.10;;;;;;5029265;28;20486;-69
2023/12/25 05:47:10;;;;;;;3.53;0.80;;;9.20;5.50;;;;;;5026540;28;20996;-69
2023/12/25 05:49:36;;;;;;;2.97;0.60;;;9.20;5.50;;;;;;5029112;28;20836;-69
2023/12/25 05:52:05;;;;;;;3.10;0.83;;;9.20;5.70;;;;;;5029789;28;20482;-69
2023/12/25 05:54:31;;;;;;;3.30;0.70;;;9.20;6.00;;;;;;5028447;28;20471;-70
2023/12/25 05:56:58;;;;;;;3.13;0.90;;;9.20;5.80;;;;;;5027017;28;20480;-69
2023/12/25 05:59:25;;;;;;;4.00;0.70;;;9.20;5.90;;;;;;5025968;28;20459;-69
2023/12/25 06:01:52;;;;;;;3.53;0.73;;;9.20;5.90;;;;;;5028161;28;20863;-69
2023/12/25 06:04:19;;;;;;;3.20;0.70;;;9.20;5.90;;;;;;5026995;28;21648;-69
2023/12/25 06:06:46;;;;;;;3.20;0.80;;;9.20;6.00;;;;;;5023316;28;20467;-69
2023/12/25 06:09:14;;;;;;;3.00;0.60;;;9.20;6.10;;;;;;5026262;28;20497;-69
2023/12/25 06:11:41;;;;;;;4.80;0.80;;;9.20;6.00;;;;;;5027085;28;20486;-69
2023/12/25 06:14:08;;;;;;;3.00;0.73;;;9.20;5.80;;;;;;5029706;28;20479;-69
2023/12/25 06:16:34;;;;;;;3.10;0.70;;;9.20;5.80;;;;;;5024324;28;20493;-69
2023/12/25 06:19:01;;;;;;;3.73;0.70;;;9.30;5.80;;;;;;5026070;28;21003;-69
2023/12/25 06:21:27;;;;;;;2.90;0.73;;;9.30;5.80;;;;;;5027687;28;20463;-70
2023/12/25 06:23:54;;;;;;;3.10;0.67;;;9.30;5.40;;;;;;5028380;28;20493;-69
2023/12/25 06:26:22;;;;;;;3.10;0.80;;;9.30;5.50;;;;;;5026911;28;20285;-69
2023/12/25 06:28:49;;;;;;;3.17;0.80;;;9.30;5.80;;;;;;5026985;28;20812;-69
2023/12/25 06:31:16;;;;;;;3.00;0.80;;;9.30;5.60;;;;;;5026111;28;20479;-69
2023/12/25 06:33:43;;;;;;;3.00;0.50;;;9.30;5.50;;;;;;5026521;28;20566;-69
2023/12/25 06:36:09;;;;;;;2.90;0.60;;;9.30;5.30;;;;;;5024119;28;20852;-69
2023/12/25 06:38:36;;;;;;;3.83;0.83;;;9.30;5.60;;;;;;5027614;28;20469;-70
2023/12/25 06:41:03;;;;;;;3.37;0.80;;;9.30;5.70;;;;;;5026795;28;20467;-69
2023/12/25 06:43:31;;;;;;;3.10;0.80;;;9.30;5.70;;;;;;5025542;28;20505;-69
2023/12/25 06:45:58;;;;;;;2.90;0.57;;;9.30;5.70;;;;;;5025014;28;20458;-69
2023/12/25 06:48:25;;;;;;;3.50;0.80;;;9.30;6.00;;;;;;5027838;28;20467;-69
2023/12/25 06:50:53;;;;;;;4.40;0.70;;;9.30;6.10;;;;;;5025006;28;20517;-69
2023/12/25 06:53:20;;;;;;;3.07;0.60;;;9.20;6.10;;;;;;5024339;28;20597;-69
2023/12/25 06:55:47;;;;;;;3.53;0.60;;;9.20;6.10;;;;;;5021937;28;20816;-70
2023/12/25 06:58:13;;;;;;;4.33;0.80;;;9.20;6.20;;;;;;5021467;28;20947;-69
2023/12/25 07:00:41;;;;;;;2.90;0.60;;;9.20;6.00;;;;;;5026155;28;20455;-69
2023/12/25 07:03:09;;;;;;;4.03;0.80;;;9.20;6.20;;;;;;5026384;28;20502;-69
2023/12/25 07:05:35;;;;;;;3.40;0.70;;;9.20;6.50;;;;;;5022269;28;20542;-70
2023/12/25 07:08:02;;;;;;;3.73;0.90;;;9.10;7.00;;;;;;5024709;28;20478;-71
2023/12/25 07:10:29;;;;;;;3.50;1.00;;;9.10;6.70;;;;;;5049771;23;20540;-72
2023/12/25 07:12:55;;;;;;;3.77;0.83;;;9.10;6.80;;;;;;5051264;28;20465;-70
2023/12/25 07:15:22;;;;;;;4.53;0.97;;;9.10;6.90;;;;;;5046827;28;20798;-70
2023/12/25 07:17:50;;;;;;;3.50;0.90;;;9.00;6.90;;;;;;5042805;28;20462;-70
2023/12/25 07:20:17;;;;;;;3.47;0.73;;;9.00;7.10;;;;;;5044318;28;20470;-70
2023/12/25 07:22:43;;;;;;;3.40;1.10;;;9.00;7.00;;;;;;5048241;28;20474;-70
2023/12/25 07:25:11;;;;;;;7.20;4.30;;;9.00;6.90;;;;;;5048327;28;20474;-70
2023/12/25 07:27:37;;;;;;;3.67;1.20;;;9.10;7.00;;;;;;5048194;28;20485;-70
2023/12/25 07:30:06;;;;;;;3.20;0.90;;;9.10;7.00;;;;;;5049316;28;21140;-70
2023/12/25 07:32:33;;;;;;;3.20;1.10;;;9.10;7.20;;;;;;5049379;28;20477;-71
2023/12/25 07:35:01;;;;;;;3.60;1.20;;;9.10;7.00;;;;;;5053793;28;20492;-71
2023/12/25 07:37:27;;;;;;;4.17;1.27;;;9.10;6.90;;;;;;5042166;28;21021;-70
2023/12/25 07:39:54;;;;;;;6.50;2.70;;;9.20;6.80;;;;;;5047250;28;20480;-70
2023/12/25 07:42:21;;;;;;;4.20;1.20;;;9.20;6.60;;;;;;5042596;28;20458;-70
2023/12/25 07:44:48;;;;;;;3.60;1.07;;;9.30;6.20;;;;;;5045160;28;20478;-71
2023/12/25 07:47:14;;;;;;;3.07;0.70;;;9.40;5.70;;;;;;5043531;28;20461;-71
2023/12/25 07:49:41;;;;;;;3.10;0.93;;;9.40;5.00;;;;;;5043710;28;20450;-71
2023/12/25 07:52:09;;;;;;;3.90;1.07;;;9.50;4.20;;;;;;5046108;28;20243;-70
2023/12/25 07:54:35;;;;;;;4.17;1.00;;;9.70;4.50;;;;;;5046551;28;20484;-71
2023/12/25 07:57:02;;;;;;;3.57;1.20;;;9.80;4.40;;;;;;5042819;28;20973;-70
2023/12/25 07:59:29;;;;;;;3.50;0.97;;;9.90;4.10;;;;;;5043595;28;20832;-71
2023/12/25 08:01:55;;;;;;;3.77;1.27;;;10.00;3.40;;;;;;5044834;28;20474;-70
2023/12/25 08:04:22;;;;;;;3.90;1.23;;;10.10;3.00;;;;;;5048773;28;20473;-71
2023/12/25 08:06:49;;;;;;;4.07;1.43;;;10.20;2.80;;;;;;5048199;28;20466;-71
2023/12/25 08:09:17;;;;;;;3.50;1.00;;;10.30;2.80;;;;;;5049966;28;20477;-70
2023/12/25 08:11:43;;;;;;;3.40;0.90;;;10.50;2.00;;;;;;5046532;28;21200;-70
2023/12/25 08:14:10;;;;;;;3.40;0.90;;;10.60;1.90;;;;;;5048819;28;20512;-70
2023/12/25 08:16:37;;;;;;;4.50;1.00;;;10.60;1.50;;;;;;5049411;28;20470;-70
2023/12/25 08:19:03;;;;;;;3.37;0.90;;;10.80;1.30;;;;;;5045975;28;20468;-70
2023/12/25 08:21:30;;;;;;;3.07;0.73;;;11.00;1.00;;;;;;5043310;28;20465;-71
2023/12/25 08:23:58;;;;;;;3.07;0.73;;;11.20;1.00;;;;;;5046290;28;20998;-71
2023/12/25 08:26:26;;;;;;;5.37;1.23;;;11.20;1.00;;;;;;5047049;28;20465;-71
2023/12/25 08:28:52;;;;;;;4.40;1.30;;;11.30;1.00;;;;;;5044789;28;20478;-71
2023/12/25 08:31:19;;;;;;;3.87;1.00;;;11.30;1.00;;;;;;5045792;28;20513;-71
2023/12/25 08:33:46;;;;;;;3.80;1.07;;;11.30;1.00;;;;;;5049156;28;20482;-74
2023/12/25 08:36:13;;;;;;;3.33;0.90;;;11.30;1.00;;;;;;5045102;28;20469;-70
2023/12/25 08:38:39;;;;;;;4.40;1.10;;;11.30;1.00;;;;;;5047644;28;20454;-71
2023/12/25 08:41:06;;;;;;;3.43;0.87;;;11.40;1.00;;;;;;5050687;28;20462;-73
2023/12/25 08:43:34;;;;;;;3.00;0.70;;;11.40;1.00;;;;;;5045667;28;20520;-74
2023/12/25 08:46:01;;;;;;;3.23;0.80;;;11.50;1.00;;;;;;5045468;28;20473;-70
2023/12/25 08:48:28;;;;;;;3.40;1.00;;;11.50;1.00;;;;;;5047847;28;20470;-70
2023/12/25 08:50:54;;;;;;;3.90;1.10;;;11.60;1.00;;;;;;5048973;28;21207;-70
2023/12/25 08:53:21;;;;;;;3.10;0.80;;;11.60;1.00;;;;;;5048556;28;20497;-69
2023/12/25 08:55:48;;;;;;;4.70;1.20;;;11.70;1.00;;;;;;5046241;28;20825;-70
2023/12/25 08:58:15;;;;;;;3.60;0.80;;;11.80;1.00;;;;;;5049435;28;20470;-71
2023/12/25 09:00:43;;;;;;;4.53;1.00;;;11.80;1.00;;;;;;5051184;28;20458;-71
2023/12/25 09:03:10;;;;;;;3.97;1.10;;;11.90;1.00;;;;;;5050423;28;20478;-71
2023/12/25 09:05:36;;;;;;;3.40;1.00;;;12.00;1.00;;;;;;5052345;28;20987;-75
2023/12/25 09:08:03;;;;;;;3.07;0.77;;;12.20;1.00;;;;;;5050597;28;20917;-71
2023/12/25 09:10:30;;;;;;;2.97;0.70;;;12.40;1.00;;;;;;5047986;28;20466;-71
2023/12/25 09:12:57;;;;;;;3.73;0.90;;;12.60;1.00;;;;;;5049696;28;20547;-72
2023/12/25 09:15:23;;;;;;;3.57;0.80;;;12.70;1.00;;;;;;5047679;28;20544;-71
2023/12/25 09:17:52;;;;;;;3.77;1.20;;;12.80;1.00;;;;;;5055395;28;20498;-72
2023/12/25 09:20:19;;;;;;;3.00;0.70;;;12.90;1.00;;;;;;5045500;28;20461;-72
2023/12/25 09:22:46;;;;;;;3.00;0.60;;;12.90;1.00;;;;;;5050189;28;20462;-73
2023/12/25 09:25:13;;;;;;;3.23;0.87;;;13.00;1.00;;;;;;5049577;28;20458;-72
2023/12/25 09:27:40;;;;;;;4.10;1.20;;;13.10;1.00;;;;;;5039055;28;20488;-72
2023/12/25 09:30:09;;;;;;;3.30;0.77;;;13.10;1.00;;;;;;5051033;28;20465;-74
2023/12/25 09:32:35;;;;;;;3.93;1.00;;;13.20;1.00;;;;;;5051197;28;20469;-71
2023/12/25 09:35:05;;;;;;;3.00;0.60;;;13.20;1.00;;;;;;5052048;28;20477;-72
2023/12/25 09:37:31;;;;;;;4.10;1.00;;;13.20;1.00;;;;;;5053574;28;20472;-72
2023/12/25 09:39:58;;;;;;;3.70;1.07;;;13.10;1.00;;;;;;5048846;28;20496;-71
2023/12/25 09:42:25;;;;;;;3.43;1.00;;;13.10;1.00;;;;;;5048675;28;20546;-71
2023/12/25 09:44:54;;;;;;;3.33;0.83;;;13.10;1.00;;;;;;5050471;28;20912;-72
2023/12/25 09:47:21;;;;;;;3.47;1.03;;;13.10;1.00;;;;;;5049947;28;20462;-69
2023/12/25 09:49:48;;;;;;;3.30;0.90;;;13.00;1.00;;;;;;5052761;28;20470;-71
2023/12/25 09:52:17;;;;;;;3.00;0.60;;;13.00;1.00;;;;;;5048404;28;20486;-75
2023/12/25 09:54:44;;;;;;;3.77;0.90;;;13.00;1.00;;;;;;5050119;28;20486;-73
2023/12/25 09:57:13;;;;;;;3.30;0.77;;;13.10;1.00;;;;;;5051069;28;20457;-73
2023/12/25 09:59:41;;;;;;;3.20;0.70;;;13.20;1.00;;;;;;5054239;28;20465;-70
2023/12/25 10:02:08;;;;;;;3.37;0.80;;;13.30;1.00;;;;;;5043211;28;20536;-71
2023/12/25 10:04:37;;;;;;;3.20;0.80;;;13.40;1.00;;;;;;5048279;28;20488;-69
2023/12/25 10:07:04;;;;;;;3.30;0.97;;;13.50;1.00;;;;;;5048743;28;20488;-71
2023/12/25 10:09:33;;;;;;;2.90;0.70;;;13.70;1.00;;;;;;5041855;28;20556;-70
2023/12/25 10:11:59;;;;;;;4.83;1.00;;;13.90;1.00;;;;;;5044596;28;20603;-70
2023/12/25 10:14:26;;;;;;;3.30;1.03;;;14.00;1.00;;;;;;5047358;28;20477;-70
2023/12/25 10:16:57;;;;;;;3.63;0.87;;;14.10;1.00;;;;;;5050084;28;20533;-70
2023/12/25 10:19:24;;;;;;;3.43;1.10;;;14.20;1.00;;;;;;5045602;28;20457;-70
2023/12/25 10:21:52;;;;;;;3.30;0.90;;;14.30;1.00;;;;;;5051078;28;20454;-70
2023/12/25 10:24:19;;;;;;;2.97;0.67;;;14.40;1.00;;;;;;5050594;28;20485;-70
2023/12/25 10:26:48;;;;;;;3.37;0.70;;;14.60;1.00;;;;;;5048398;28;20454;-70
2023/12/25 10:29:15;;;;;;;3.13;0.73;;;14.70;1.00;;;;;;5048955;28;20458;-70
2023/12/25 10:31:45;;;;;;;3.70;0.90;;;14.70;1.00;;;;;;5046757;28;20479;-70
2023/12/25 10:34:12;;;;;;;3.57;0.70;;;14.70;1.00;;;;;;5050000;28;20490;-70
2023/12/25 10:36:39;;;;;;;3.40;0.70;;;14.50;1.00;;;;;;5046754;28;20458;-70
2023/12/25 10:39:07;;;;;;;4.47;0.97;;;14.50;1.00;;;;;;5049953;28;20466;-70
2023/12/25 10:41:35;;;;;;;4.00;0.83;;;14.30;1.00;;;;;;5045413;28;20470;-70
2023/12/25 10:44:05;;;;;;;3.50;1.43;;;14.20;1.00;;;;;;5045592;28;20502;-70
2023/12/25 10:46:34;;;;;;;3.60;1.10;;;14.20;1.00;;;;;;5048582;28;20457;-70
2023/12/25 10:49:03;;;;;;;3.93;0.80;;;14.20;1.00;;;;;;5052497;28;20979;-70
2023/12/25 10:51:32;;;;;;;3.30;0.80;;;14.40;1.00;;;;;;5042079;28;20467;-70
2023/12/25 10:54:00;;;;;;;3.00;0.60;;;14.60;1.00;;;;;;5048197;28;20485;-72
2023/12/25 10:56:28;;;;;;;4.07;1.10;;;14.80;1.00;;;;;;5041787;28;20470;-72
2023/12/25 10:59:01;;;;;;;3.20;0.80;;;15.00;1.00;;;;;;5046237;28;20551;-72
2023/12/25 11:01:32;;;;;;;4.07;1.10;;;15.30;1.00;;;;;;5046362;28;20474;-72
2023/12/25 11:03:59;;;;;;;4.00;1.00;;;15.50;1.00;;;;;;5052225;28;20481;-72
2023/12/25 11:06:26;;;;;;;3.77;0.80;;;15.50;1.00;;;;;;5050712;28;20461;-72
2023/12/25 11:08:53;;;;;;;3.07;0.70;;;15.60;1.00;;;;;;5047530;28;20473;-70
2023/12/25 11:11:23;;;;;;;3.13;0.70;;;15.80;1.00;;;;;;5048798;28;20466;-71
2023/12/25 11:13:50;;;;;;;3.00;0.80;;;16.00;1.00;;;;;;5050277;28;20547;-70
2023/12/25 11:16:17;;;;;;;3.40;0.90;;;16.30;1.00;;;;;;5049945;28;20845;-70
2023/12/25 11:18:46;;;;;;;3.93;1.10;;;16.50;1.00;;;;;;5049682;28;20516;-70
2023/12/25 11:21:18;;;;;;;3.23;0.80;;;16.50;1.00;;;;;;5044702;28;20540;-70
2023/12/25 11:23:47;;;;;;;3.90;0.93;;;16.40;1.00;;;;;;5046688;28;21028;-70
2023/12/25 11:26:16;;;;;;;4.00;1.00;;;16.30;1.00;;;;;;5041429;28;20458;-70
2023/12/25 11:28:49;;;;;;;6.70;0.70;;;16.20;1.00;;;;;;5047498;28;20447;-70
2023/12/25 11:31:22;;;;;;;3.23;0.80;;;16.10;1.00;;;;;;5053035;28;20472;-70
2023/12/25 11:33:51;;;;;;;3.10;0.80;;;16.00;1.00;;;;;;5048444;28;20496;-70
2023/12/25 11:36:18;;;;;;;3.13;1.00;;;16.00;1.00;;;;;;5045583;28;20922;-70
2023/12/25 11:38:46;;;;;;;3.27;0.87;;;15.90;1.00;;;;;;5051656;28;20458;-70
2023/12/25 11:41:17;;;;;;;3.00;0.60;;;15.80;1.00;;;;;;5053393;28;20453;-70
2023/12/25 11:43:44;;;;;;;3.20;0.80;;;15.70;1.00;;;;;;5054608;28;20477;-71
2023/12/25 11:46:16;;;;;;;3.00;0.80;;;15.50;1.00;;;;;;5053937;28;20467;-70
2023/12/25 11:48:44;;;;;;;3.30;0.90;;;15.60;1.00;;;;;;5047439;28;20461;-70
2023/12/25 11:51:24;;;;;;;3.13;0.70;;;15.70;1.00;;;;;;5051641;28;20495;-70
2023/12/25 11:53:57;;;;;;;3.00;0.70;;;15.80;1.00;;;;;;5048769;28;20493;-70
2023/12/25 11:56:25;;;;;;;3.47;1.00;;;15.90;1.00;;;;;;5052719;28;20458;-70
2023/12/25 11:58:53;;;;;;;3.83;1.20;;;15.90;1.00;;;;;;5055382;28;20465;-70
2023/12/25 12:01:20;;;;;;;3.70;1.20;;;15.90;1.00;;;;;;5052967;28;21020;-70
2023/12/25 12:03:48;;;;;;;3.50;0.90;;;15.80;1.00;;;;;;5052532;28;20496;-70
2023/12/25 12:06:15;;;;;;;3.70;0.90;;;15.80;1.00;;;;;;5043458;28;20466;-70
2023/12/25 12:08:44;;;;;;;3.53;1.10;;;15.80;1.00;;;;;;5049042;28;20466;-70
2023/12/25 12:11:13;;;;;;;3.90;1.30;;;15.80;1.00;;;;;;5052520;28;21284;-70
2023/12/25 12:13:40;;;;;;;3.73;1.17;;;15.70;1.00;;;;;;5053413;28;20492;-70
2023/12/25 12:16:07;;;;;;;3.73;1.00;;;15.50;1.00;;;;;;5053201;28;20457;-70
2023/12/25 12:18:34;;;;;;;4.07;0.90;;;15.40;1.00;;;;;;5053578;28;20458;-70
2023/12/25 12:21:01;;;;;;;3.43;0.90;;;15.30;1.00;;;;;;5047279;28;20470;-70
2023/12/25 12:23:30;;;;;;;3.50;1.03;;;15.20;1.00;;;;;;5046804;28;20477;-70
2023/12/25 12:25:59;;;;;;;3.10;0.77;;;15.10;1.00;;;;;;5049281;28;20966;-70
2023/12/25 12:28:26;;;;;;;3.20;0.93;;;15.00;1.00;;;;;;5050002;28;20482;-70
2023/12/25 12:30:53;;;;;;;3.23;0.93;;;15.00;1.00;;;;;;5049301;28;21038;-70
2023/12/25 12:33:20;;;;;;;3.30;0.80;;;15.10;1.00;;;;;;5048100;28;20489;-70
2023/12/25 12:35:48;;;;;;;6.30;0.90;;;15.20;1.00;;;;;;5047829;28;20462;-70
2023/12/25 12:38:15;;;;;;;3.40;0.90;;;15.30;1.00;;;;;;5048791;28;20563;-70
2023/12/25 12:40:42;;;;;;;4.07;1.00;;;15.30;1.00;;;;;;5047783;28;21177;-70
2023/12/25 12:43:10;;;;;;;3.17;0.90;;;15.30;1.00;;;;;;5050460;28;20604;-70
2023/12/25 12:45:36;;;;;;;3.83;1.17;;;15.30;1.00;;;;;;5046789;28;20469;-70
2023/12/25 12:48:04;;;;;;;3.20;0.77;;;15.20;1.00;;;;;;5052816;28;20493;-70
2023/12/25 12:50:31;;;;;;;4.23;0.70;;;15.10;1.00;;;;;;5051890;28;20482;-70
2023/12/25 12:52:58;;;;;;;3.67;0.83;;;15.10;1.00;;;;;;5050684;28;20481;-70
2023/12/25 12:55:24;;;;;;;3.20;0.90;;;15.00;1.00;;;;;;5047893;28;20462;-70
2023/12/25 12:57:50;;;;;;;3.70;1.20;;;14.90;1.00;;;;;;5041704;28;21218;-70
2023/12/25 13:00:19;;;;;;;3.33;0.93;;;14.80;1.00;;;;;;5046993;28;20458;-70